createdAt,value
2022-10-27T00:00:15.301Z,101413.00
2022-10-27T00:02:43.803Z,101417.31
2022-10-27T00:05:11.920Z,101406.34
2022-10-27T00:07:41.078Z,101422.22
2022-10-27T00:10:09.273Z,101412.28
2022-10-27T00:12:37.261Z,101413.34
2022-10-27T00:15:05.646Z,101416.63
2022-10-27T00:17:33.615Z,101421.78
2022-10-27T00:20:01.520Z,101422.25
2022-10-27T00:22:30.022Z,101428.41
2022-10-27T00:24:59.368Z,101428.31
2022-10-27T00:27:28.245Z,101422.09
2022-10-27T00:29:56.293Z,101420.38
2022-10-27T00:32:24.234Z,101424.19
2022-10-27T00:34:52.223Z,101424.47
2022-10-27T00:37:20.232Z,101421.72
2022-10-27T00:39:48.469Z,101421.97
2022-10-27T00:42:17.939Z,101424.19
2022-10-27T00:44:46.518Z,101414.59
2022-10-27T00:47:19.497Z,101423.50
2022-10-27T00:49:51.002Z,101427.91
2022-10-27T00:52:23.171Z,101429.00
2022-10-27T00:54:51.791Z,101430.84
2022-10-27T00:57:21.097Z,101429.22
2022-10-27T00:59:49.141Z,101427.56
2022-10-27T01:02:17.123Z,101431.22
2022-10-27T01:04:48.916Z,101432.41
2022-10-27T01:07:18.712Z,101435.44
2022-10-27T01:09:47.462Z,101435.44
2022-10-27T01:12:15.459Z,101444.44
2022-10-27T01:14:45.224Z,101444.38
2022-10-27T01:17:19.850Z,101435.53
2022-10-27T01:20:02.713Z,101433.31
2022-10-27T01:22:35.206Z,101439.03
2022-10-27T01:25:13.471Z,101446.44
2022-10-27T01:27:50.581Z,101435.53
2022-10-27T01:30:20.496Z,101440.34
2022-10-27T01:32:52.774Z,101437.41
2022-10-27T01:35:27.112Z,101447.06
2022-10-27T01:37:56.966Z,101441.66
2022-10-27T01:40:25.854Z,101442.34
2022-10-27T01:42:57.579Z,101452.81
2022-10-27T01:45:28.036Z,101454.28
2022-10-27T01:47:58.615Z,101445.81
2022-10-27T01:50:35.939Z,101448.25
2022-10-27T01:53:16.787Z,101452.41
2022-10-27T01:55:49.788Z,101451.13
2022-10-27T01:58:38.681Z,101452.56
2022-10-27T02:01:14.145Z,101442.72
2022-10-27T02:03:47.404Z,101436.69
2022-10-27T02:06:21.699Z,101443.56
2022-10-27T02:08:53.992Z,101438.03
2022-10-27T02:11:22.486Z,101447.66
2022-10-27T02:13:52.074Z,101444.63
2022-10-27T02:16:22.786Z,101445.69
2022-10-27T02:18:54.051Z,101447.56
2022-10-27T02:21:22.993Z,101449.66
2022-10-27T02:23:50.961Z,101456.78
2022-10-27T02:26:21.481Z,101450.19
2022-10-27T02:28:50.792Z,101451.88
2022-10-27T02:31:21.218Z,101449.78
2022-10-27T02:33:49.814Z,101448.75
2022-10-27T02:36:19.223Z,101449.38
2022-10-27T02:38:47.045Z,101461.53
2022-10-27T02:41:14.919Z,101456.13
2022-10-27T02:43:42.832Z,101459.94
2022-10-27T02:46:10.883Z,101459.97
2022-10-27T02:48:38.759Z,101446.28
2022-10-27T02:51:06.754Z,101461.63
2022-10-27T02:53:36.172Z,101455.38
2022-10-27T02:56:04.565Z,101450.50
2022-10-27T02:58:32.634Z,101458.47
2022-10-27T03:01:00.688Z,101450.00
2022-10-27T03:03:28.886Z,101457.44
2022-10-27T03:05:56.807Z,101439.91
2022-10-27T03:08:24.746Z,101431.97
2022-10-27T03:10:54.151Z,101444.31
2022-10-27T03:13:22.088Z,101437.50
2022-10-27T03:15:50.633Z,101452.38
2022-10-27T03:18:18.462Z,101443.31
2022-10-27T03:20:46.547Z,101447.47
2022-10-27T03:23:15.470Z,101444.44
2022-10-27T03:25:47.633Z,101445.56
2022-10-27T03:28:18.207Z,101443.88
2022-10-27T03:30:46.025Z,101429.81
2022-10-27T03:33:13.912Z,101433.72
2022-10-27T03:35:41.803Z,101431.56
2022-10-27T03:38:12.997Z,101443.06
2022-10-27T03:40:41.131Z,101441.19
2022-10-27T03:43:10.061Z,101447.78
2022-10-27T03:45:39.376Z,101445.59
2022-10-27T03:48:08.369Z,101440.72
2022-10-27T03:50:36.268Z,101439.66
2022-10-27T03:53:04.910Z,101440.47
2022-10-27T03:55:33.279Z,101436.94
2022-10-27T03:58:01.477Z,101439.63
2022-10-27T04:00:31.435Z,101436.66
2022-10-27T04:03:00.670Z,101436.38
2022-10-27T04:05:28.663Z,101431.47
2022-10-27T04:07:56.566Z,101434.78
2022-10-27T04:10:24.693Z,101433.97
2022-10-27T04:12:54.493Z,101439.72
2022-10-27T04:15:22.942Z,101434.25
2022-10-27T04:17:53.298Z,101423.31
2022-10-27T04:20:22.492Z,101424.94
2022-10-27T04:22:50.832Z,101432.66
2022-10-27T04:25:18.902Z,101431.03
2022-10-27T04:27:46.722Z,101421.72
2022-10-27T04:30:14.534Z,101429.38
2022-10-27T04:32:42.548Z,101424.47
2022-10-27T04:35:10.558Z,101429.38
2022-10-27T04:37:39.745Z,101437.59
2022-10-27T04:40:08.301Z,101422.28
2022-10-27T04:42:36.312Z,101433.78
2022-10-27T04:45:04.257Z,101422.84
2022-10-27T04:47:32.294Z,101423.94
2022-10-27T04:50:00.136Z,101424.78
2022-10-27T04:52:28.069Z,101418.75
2022-10-27T04:54:57.227Z,101422.59
2022-10-27T04:57:25.198Z,101421.22
2022-10-27T04:59:53.171Z,101422.56
2022-10-27T05:02:21.164Z,101417.34
2022-10-27T05:04:49.092Z,101425.00
2022-10-27T05:07:17.260Z,101419.53
2022-10-27T05:09:45.101Z,101419.53
2022-10-27T05:12:14.838Z,101416.25
2022-10-27T05:14:42.788Z,101424.19
2022-10-27T05:17:12.503Z,101417.06
2022-10-27T05:19:41.406Z,101417.00
2022-10-27T05:22:09.295Z,101424.09
2022-10-27T05:24:37.519Z,101421.59
2022-10-27T05:27:05.481Z,101428.13
2022-10-27T05:29:34.877Z,101418.00
2022-10-27T05:32:02.891Z,101419.97
2022-10-27T05:34:30.743Z,101432.88
2022-10-27T05:36:58.572Z,101422.81
2022-10-27T05:39:29.274Z,101427.75
2022-10-27T05:41:57.349Z,101426.13
2022-10-27T05:44:25.187Z,101429.41
2022-10-27T05:46:54.440Z,101436.00
2022-10-27T05:49:22.337Z,101425.03
2022-10-27T05:51:50.352Z,101432.72
2022-10-27T05:54:18.857Z,101423.97
2022-10-27T05:56:46.854Z,101424.78
2022-10-27T05:59:14.802Z,101426.41
2022-10-27T06:01:42.891Z,101433.25
2022-10-27T06:04:12.239Z,101427.25
2022-10-27T06:06:40.281Z,101434.91
2022-10-27T06:09:08.311Z,101434.09
2022-10-27T06:11:36.198Z,101436.53
2022-10-27T06:14:04.066Z,101443.09
2022-10-27T06:16:31.884Z,101438.72
2022-10-27T06:18:59.912Z,101439.53
2022-10-27T06:21:29.064Z,101440.91
2022-10-27T06:23:57.154Z,101435.69
2022-10-27T06:26:25.155Z,101439.50
2022-10-27T06:28:53.195Z,101446.06
2022-10-27T06:31:21.013Z,101444.66
2022-10-27T06:33:48.923Z,101440.50
2022-10-27T06:36:16.805Z,101439.66
2022-10-27T06:38:54.678Z,101438.47
2022-10-27T06:41:22.680Z,101443.91
2022-10-27T06:43:50.931Z,101445.22
2022-10-27T06:46:18.760Z,101446.50
2022-10-27T06:48:46.709Z,101454.56
2022-10-27T06:51:14.566Z,101457.19
2022-10-27T06:53:42.610Z,101449.28
2022-10-27T06:56:11.864Z,101445.13
2022-10-27T06:58:40.085Z,101450.34
2022-10-27T07:01:14.892Z,101457.22
2022-10-27T07:03:43.068Z,101455.25
2022-10-27T07:06:10.919Z,101451.72
2022-10-27T07:08:38.800Z,101448.91
2022-10-27T07:11:06.910Z,101455.66
2022-10-27T07:13:36.105Z,101451.56
2022-10-27T07:16:04.191Z,101449.31
2022-10-27T07:18:33.262Z,101449.47
2022-10-27T07:21:01.332Z,101450.75
2022-10-27T07:23:29.175Z,101447.75
2022-10-27T07:25:57.143Z,101441.09
2022-10-27T07:28:25.201Z,101442.06
2022-10-27T07:30:56.643Z,101447.59
2022-10-27T07:33:24.499Z,101442.41
2022-10-27T07:35:53.378Z,101444.38
2022-10-27T07:38:21.398Z,101439.75
2022-10-27T07:40:50.121Z,101441.56
2022-10-27T07:43:18.043Z,101433.44
2022-10-27T07:45:45.946Z,101434.53
2022-10-27T07:48:16.949Z,101439.47
2022-10-27T07:50:45.305Z,101431.53
2022-10-27T07:53:15.339Z,101419.53
2022-10-27T07:55:43.235Z,101418.88
2022-10-27T07:58:12.246Z,101419.84
2022-10-27T08:00:41.018Z,101416.81
2022-10-27T08:03:11.898Z,101410.75
2022-10-27T08:05:44.231Z,101409.66
2022-10-27T08:08:12.692Z,101399.16
2022-10-27T08:10:41.173Z,101400.34
2022-10-27T08:13:25.118Z,101403.22
2022-10-27T08:18:22.197Z,101401.44
2022-10-27T08:20:52.122Z,101409.66
2022-10-27T08:23:21.870Z,101405.75
2022-10-27T08:25:51.422Z,101412.50
2022-10-27T08:28:19.473Z,101415.88
2022-10-27T08:30:52.330Z,101411.25
2022-10-27T08:33:21.535Z,101411.72
2022-10-27T08:35:51.559Z,101410.09
2022-10-27T08:38:20.366Z,101406.88
2022-10-27T08:40:58.033Z,101408.84
2022-10-27T08:43:42.647Z,101411.56
2022-10-27T08:46:14.814Z,101402.06
2022-10-27T08:48:43.925Z,101413.66
2022-10-27T08:51:15.149Z,101405.09
2022-10-27T08:53:45.979Z,101404.59
2022-10-27T08:56:14.026Z,101410.63
2022-10-27T09:01:17.478Z,101404.97
2022-10-27T09:03:55.682Z,101411.09
2022-10-27T09:06:28.022Z,101407.31
2022-10-27T09:09:00.225Z,101401.84
2022-10-27T09:11:46.263Z,101399.75
2022-10-27T09:14:26.145Z,101398.72
2022-10-27T09:16:56.894Z,101400.34
2022-10-27T09:19:28.379Z,101394.91
2022-10-27T09:21:57.861Z,101393.59
2022-10-27T09:24:29.230Z,101398.53
2022-10-27T09:27:00.235Z,101394.06
2022-10-27T09:29:30.674Z,101392.63
2022-10-27T09:32:01.409Z,101385.63
2022-10-27T09:34:32.442Z,101383.88
2022-10-27T09:37:01.788Z,101383.66
2022-10-27T09:39:29.841Z,101387.41
2022-10-27T09:41:58.482Z,101368.72
2022-10-27T09:44:27.016Z,101374.47
2022-10-27T09:46:56.361Z,101360.63
2022-10-27T09:49:28.090Z,101371.31
2022-10-27T09:51:58.962Z,101369.19
2022-10-27T09:54:33.487Z,101369.44
2022-10-27T09:57:06.721Z,101375.78
2022-10-27T09:59:36.874Z,101368.16
2022-10-27T10:02:05.352Z,101361.13
2022-10-27T10:04:35.156Z,101358.63
2022-10-27T10:07:04.240Z,101364.44
2022-10-27T10:09:34.004Z,101360.19
2022-10-27T10:12:22.154Z,101360.22
2022-10-27T10:14:52.418Z,101362.22
2022-10-27T10:17:24.248Z,101361.31
2022-10-27T10:19:53.016Z,101351.28
2022-10-27T10:22:22.882Z,101343.22
2022-10-27T10:24:53.004Z,101346.13
2022-10-27T10:27:29.316Z,101323.28
2022-10-27T10:29:59.116Z,101335.19
2022-10-27T10:32:28.740Z,101322.56
2022-10-27T10:35:00.544Z,101311.63
2022-10-27T10:37:32.756Z,101319.19
2022-10-27T10:40:25.128Z,101321.63
2022-10-27T10:43:02.898Z,101311.91
2022-10-27T10:45:34.810Z,101295.00
2022-10-27T10:48:07.203Z,101307.59
2022-10-27T10:50:45.958Z,101297.84
2022-10-27T10:53:24.604Z,101298.19
2022-10-27T10:55:56.711Z,101297.28
2022-10-27T10:58:28.288Z,101294.56
2022-10-27T11:00:57.927Z,101281.94
2022-10-27T11:03:27.172Z,101288.91
2022-10-27T11:05:56.862Z,101278.78
2022-10-27T11:08:26.076Z,101271.19
2022-10-27T11:10:57.888Z,101265.59
2022-10-27T11:13:31.386Z,101259.63
2022-10-27T11:16:00.931Z,101258.84
2022-10-27T11:18:29.821Z,101258.72
2022-10-27T11:21:00.210Z,101268.88
2022-10-27T11:23:31.213Z,101252.88
2022-10-27T11:25:59.435Z,101258.09
2022-10-27T11:28:33.675Z,101256.06
2022-10-27T11:31:05.288Z,101246.41
2022-10-27T11:33:38.656Z,101252.91
2022-10-27T11:36:12.144Z,101242.13
2022-10-27T11:38:46.379Z,101231.47
2022-10-27T11:41:18.012Z,101232.75
2022-10-27T11:43:51.951Z,101232.22
2022-10-27T11:46:27.572Z,101233.38
2022-10-27T11:48:58.941Z,101244.50
2022-10-27T11:51:31.877Z,101231.66
2022-10-27T11:54:00.196Z,101235.56
2022-10-27T11:56:34.703Z,101217.50
2022-10-27T11:59:08.900Z,101224.38
2022-10-27T12:01:47.368Z,101224.59
2022-10-27T12:04:22.378Z,101227.16
2022-10-27T12:06:55.359Z,101229.00
2022-10-27T12:09:31.350Z,101221.75
2022-10-27T12:12:02.909Z,101223.28
2022-10-27T12:14:35.876Z,101223.78
2022-10-27T12:17:06.818Z,101236.53
2022-10-27T12:19:37.110Z,101227.91
2022-10-27T12:22:08.366Z,101219.97
2022-10-27T12:24:39.195Z,101216.63
2022-10-27T12:27:11.758Z,101207.91
2022-10-27T12:29:45.245Z,101214.44
2022-10-27T12:32:16.087Z,101199.06
2022-10-27T12:34:52.326Z,101190.16
2022-10-27T12:37:24.048Z,101185.16
2022-10-27T12:39:57.240Z,101175.38
2022-10-27T12:42:31.740Z,101172.91
2022-10-27T12:45:05.084Z,101156.03
2022-10-27T12:47:40.628Z,101175.59
2022-10-27T12:50:16.030Z,101174.34
2022-10-27T12:52:48.880Z,101165.22
2022-10-27T12:55:24.417Z,101163.69
2022-10-27T12:57:58.663Z,101170.75
2022-10-27T13:00:34.008Z,101176.63
2022-10-27T13:03:20.309Z,101169.81
2022-10-27T13:06:05.668Z,101178.88
2022-10-27T13:08:50.309Z,101161.69
2022-10-27T13:11:28.429Z,101154.78
2022-10-27T13:14:11.717Z,101156.19
2022-10-27T13:16:47.700Z,101153.19
2022-10-27T13:19:22.125Z,101153.94
2022-10-27T13:22:00.366Z,101155.50
2022-10-27T13:24:32.925Z,101153.72
2022-10-27T13:27:05.090Z,101135.94
2022-10-27T13:29:37.755Z,101147.22
2022-10-27T13:32:26.759Z,101136.22
2022-10-27T13:35:13.830Z,101146.38
2022-10-27T13:37:46.849Z,101140.38
2022-10-27T13:40:35.320Z,101145.09
2022-10-27T13:43:20.066Z,101140.53
2022-10-27T13:45:51.698Z,101140.41
2022-10-27T13:48:32.985Z,101137.72
2022-10-27T13:51:33.699Z,101121.88
2022-10-27T13:54:31.670Z,101119.09
2022-10-27T13:57:02.500Z,101116.41
2022-10-27T14:02:01.837Z,101118.03
2022-10-27T14:04:44.673Z,101123.75
2022-10-27T14:07:18.352Z,101105.13
2022-10-27T14:09:50.754Z,101107.78
2022-10-27T14:12:32.669Z,101110.22
2022-10-27T14:15:03.798Z,101113.09
2022-10-27T14:17:36.534Z,101117.91
2022-10-27T14:20:07.113Z,101112.56
2022-10-27T14:22:39.034Z,101108.13
2022-10-27T14:25:28.095Z,101110.06
2022-10-27T14:28:15.248Z,101114.00
2022-10-27T14:30:44.542Z,101115.00
2022-10-27T14:33:19.964Z,101105.84
2022-10-27T14:35:51.398Z,101105.97
2022-10-27T14:38:22.492Z,101100.19
2022-10-27T14:40:51.081Z,101096.19
2022-10-27T14:43:22.506Z,101100.22
2022-10-27T14:45:54.643Z,101094.22
2022-10-27T14:48:25.450Z,101089.81
2022-10-27T14:50:58.371Z,101092.66
2022-10-27T14:53:29.154Z,101096.56
2022-10-27T14:56:03.495Z,101091.34
2022-10-27T14:58:32.839Z,101096.84
2022-10-27T15:01:00.728Z,101091.06
2022-10-27T15:03:36.303Z,101090.66
2022-10-27T15:06:07.805Z,101083.22
2022-10-27T15:08:36.386Z,101090.00
2022-10-27T15:11:06.980Z,101092.66
2022-10-27T15:13:37.161Z,101093.19
2022-10-27T15:16:11.459Z,101089.50
2022-10-27T15:18:43.430Z,101086.81
2022-10-27T15:21:12.802Z,101084.88
2022-10-27T15:23:42.163Z,101086.31
2022-10-27T15:26:12.733Z,101087.00
2022-10-27T15:28:42.372Z,101085.03
2022-10-27T15:31:10.702Z,101087.63
2022-10-27T15:33:41.199Z,101090.75
2022-10-27T15:36:24.260Z,101086.66
2022-10-27T15:38:53.986Z,101087.81
2022-10-27T15:41:23.741Z,101080.69
2022-10-27T15:43:56.749Z,101087.22
2022-10-27T15:46:29.779Z,101083.63
2022-10-27T15:49:16.837Z,101085.63
2022-10-27T15:51:49.790Z,101086.16
2022-10-27T15:54:27.233Z,101076.81
2022-10-27T15:56:56.818Z,101071.75
2022-10-27T15:59:30.095Z,101068.63
2022-10-27T16:02:01.406Z,101073.47
2022-10-27T16:04:31.211Z,101078.13
2022-10-27T16:07:17.420Z,101061.34
2022-10-27T16:09:46.418Z,101068.44
2022-10-27T16:12:14.974Z,101044.59
2022-10-27T16:14:49.512Z,101012.66
2022-10-27T16:17:20.276Z,101021.25
2022-10-27T16:19:48.240Z,101051.81
2022-10-27T16:22:18.257Z,101046.16
2022-10-27T16:24:46.503Z,101047.41
2022-10-27T16:27:16.627Z,101050.19
2022-10-27T16:29:46.034Z,101053.53
2022-10-27T16:32:13.998Z,101059.06
2022-10-27T16:34:41.920Z,101065.06
2022-10-27T16:37:15.707Z,101065.88
2022-10-27T16:39:43.911Z,101075.97
2022-10-27T16:42:12.271Z,101068.09
2022-10-27T16:44:40.641Z,101061.38
2022-10-27T16:47:10.023Z,101065.53
2022-10-27T16:49:38.005Z,101065.94
2022-10-27T16:52:06.218Z,101061.94
2022-10-27T16:54:34.762Z,101071.63
2022-10-27T16:57:02.871Z,101073.59
2022-10-27T16:59:30.688Z,101074.75
2022-10-27T17:01:58.846Z,101077.81
2022-10-27T17:04:28.581Z,101073.66
2022-10-27T17:06:56.494Z,101070.41
2022-10-27T17:09:24.360Z,101071.09
2022-10-27T17:11:52.254Z,101074.94
2022-10-27T17:14:20.194Z,101080.59
2022-10-27T17:16:49.771Z,101081.66
2022-10-27T17:19:17.770Z,101086.16
2022-10-27T17:21:47.989Z,101082.47
2022-10-27T17:24:15.933Z,101085.13
2022-10-27T17:26:43.889Z,101094.03
2022-10-27T17:29:11.930Z,101083.41
2022-10-27T17:31:40.023Z,101089.88
2022-10-27T17:34:08.041Z,101093.63
2022-10-27T17:36:35.955Z,101090.38
2022-10-27T17:39:05.406Z,101095.94
2022-10-27T17:41:33.624Z,101090.69
2022-10-27T17:44:01.548Z,101094.50
2022-10-27T17:46:30.592Z,101105.97
2022-10-27T17:51:30.176Z,101093.16
2022-10-27T17:53:59.048Z,101096.81
2022-10-27T17:56:31.430Z,101099.72
2022-10-27T17:58:59.762Z,101098.19
2022-10-27T18:01:28.667Z,101100.06
2022-10-27T18:03:57.457Z,101097.97
2022-10-27T18:06:26.815Z,101098.31
2022-10-27T18:08:56.521Z,101108.84
2022-10-27T18:11:26.108Z,101106.75
2022-10-27T18:14:00.627Z,101109.53
2022-10-27T18:16:31.940Z,101110.63
2022-10-27T18:19:00.818Z,101111.78
2022-10-27T18:21:30.558Z,101110.16
2022-10-27T18:23:59.248Z,101116.19
2022-10-27T18:26:27.601Z,101106.81
2022-10-27T18:28:57.260Z,101105.88
2022-10-27T18:31:28.938Z,101111.66
2022-10-27T18:33:57.421Z,101111.09
2022-10-27T18:36:26.526Z,101113.50
2022-10-27T18:38:54.855Z,101118.84
2022-10-27T18:41:23.325Z,101116.44
2022-10-27T18:43:51.981Z,101124.16
2022-10-27T18:46:22.229Z,101124.47
2022-10-27T18:48:52.316Z,101120.66
2022-10-27T18:51:20.465Z,101117.19
2022-10-27T18:53:50.088Z,101111.28
2022-10-27T18:56:18.380Z,101114.16
2022-10-27T18:58:52.551Z,101118.00
2022-10-27T19:01:22.566Z,101122.25
2022-10-27T19:03:53.597Z,101114.88
2022-10-27T19:06:22.034Z,101113.81
2022-10-27T19:08:50.106Z,101113.78
2022-10-27T19:11:20.069Z,101109.13
2022-10-27T19:13:48.768Z,101110.81
2022-10-27T19:16:18.233Z,101112.91
2022-10-27T19:18:47.831Z,101113.97
2022-10-27T19:21:17.026Z,101098.19
2022-10-27T19:23:45.876Z,101098.25
2022-10-27T19:26:14.682Z,101105.25
2022-10-27T19:28:43.977Z,101113.97
2022-10-27T19:31:16.916Z,101110.25
2022-10-27T19:33:47.445Z,101113.72
2022-10-27T19:36:16.438Z,101109.31
2022-10-27T19:38:44.495Z,101100.75
2022-10-27T19:41:13.239Z,101108.47
2022-10-27T19:43:43.441Z,101113.88
2022-10-27T19:46:16.733Z,101111.31
2022-10-27T19:48:44.979Z,101106.13
2022-10-27T19:51:17.300Z,101104.38
2022-10-27T19:53:46.471Z,101105.34
2022-10-27T19:56:14.887Z,101111.41
2022-10-27T19:58:42.836Z,101115.41
2022-10-27T20:01:14.465Z,101115.75
2022-10-27T20:03:42.844Z,101110.72
2022-10-27T20:06:11.665Z,101117.72
2022-10-27T20:08:41.935Z,101119.19
2022-10-27T20:11:10.632Z,101113.97
2022-10-27T20:13:49.864Z,101115.47
2022-10-27T20:16:23.832Z,101107.19
2022-10-27T20:18:52.119Z,101114.13
2022-10-27T20:21:21.047Z,101124.59
2022-10-27T20:23:50.589Z,101125.34
2022-10-27T20:26:33.962Z,101116.75
2022-10-27T20:29:02.261Z,101106.56
2022-10-27T20:31:38.467Z,101100.56
2022-10-27T20:34:10.103Z,101103.00
2022-10-27T20:36:38.560Z,101105.28
2022-10-27T20:39:08.454Z,101116.00
2022-10-27T20:41:36.537Z,101110.97
2022-10-27T20:44:04.533Z,101103.31
2022-10-27T20:46:34.015Z,101104.63
2022-10-27T20:49:02.546Z,101097.19
2022-10-27T20:51:31.530Z,101095.03
2022-10-27T20:54:03.589Z,101098.44
2022-10-27T20:56:37.017Z,101101.19
2022-10-27T20:59:09.072Z,101098.91
2022-10-27T21:01:40.796Z,101083.31
2022-10-27T21:04:09.798Z,101085.78
2022-10-27T21:06:42.071Z,101082.69
2022-10-27T21:09:11.458Z,101094.38
2022-10-27T21:11:41.484Z,101107.72
2022-10-27T21:14:10.030Z,101099.75
2022-10-27T21:16:39.122Z,101098.00
2022-10-27T21:19:08.316Z,101097.53
2022-10-27T21:21:36.898Z,101099.75
2022-10-27T21:24:05.441Z,101093.31
2022-10-27T21:26:33.797Z,101092.59
2022-10-27T21:29:03.334Z,101088.03
2022-10-27T21:31:31.982Z,101085.44
2022-10-27T21:34:02.274Z,101084.63
2022-10-27T21:36:30.383Z,101079.25
2022-10-27T21:38:58.391Z,101080.06
2022-10-27T21:41:26.530Z,101069.19
2022-10-27T21:43:55.255Z,101081.84
2022-10-27T21:46:25.845Z,101086.69
2022-10-27T21:48:54.665Z,101082.44
2022-10-27T21:51:22.901Z,101078.91
2022-10-27T21:54:00.274Z,101082.47
2022-10-27T21:56:29.913Z,101079.91
2022-10-27T21:58:59.576Z,101076.66
2022-10-27T22:01:30.009Z,101070.16
2022-10-27T22:03:59.167Z,101075.69
2022-10-27T22:06:28.421Z,101085.19
2022-10-27T22:08:56.658Z,101085.94
2022-10-27T22:11:26.524Z,101074.88
2022-10-27T22:13:55.193Z,101087.25
2022-10-27T22:16:27.290Z,101068.97
2022-10-27T22:18:57.568Z,101069.91
2022-10-27T22:21:26.460Z,101077.84
2022-10-27T22:23:54.739Z,101078.47
2022-10-27T22:26:23.602Z,101079.16
2022-10-27T22:28:52.479Z,101068.84
2022-10-27T22:31:26.311Z,101067.72
2022-10-27T22:33:54.894Z,101065.44
2022-10-27T22:36:24.639Z,101060.38
2022-10-27T22:38:53.820Z,101064.63
2022-10-27T22:41:22.221Z,101067.06
2022-10-27T22:43:50.433Z,101056.56
2022-10-27T22:46:19.215Z,101057.91
2022-10-27T22:48:47.449Z,101056.56
2022-10-27T22:51:16.553Z,101051.69
2022-10-27T22:53:46.038Z,101051.03
2022-10-27T22:56:15.026Z,101052.38
2022-10-27T22:58:43.652Z,101042.91
2022-10-27T23:01:12.727Z,101046.38
2022-10-27T23:03:40.880Z,101050.63
2022-10-27T23:06:12.079Z,101048.56
2022-10-27T23:08:41.312Z,101043.53
2022-10-27T23:11:17.242Z,101041.75
2022-10-27T23:13:45.675Z,101050.75
2022-10-27T23:16:13.607Z,101050.06
2022-10-27T23:18:41.814Z,101051.19
2022-10-27T23:21:12.940Z,101054.50
2022-10-27T23:23:41.286Z,101050.78
2022-10-27T23:26:15.233Z,101046.91
2022-10-27T23:28:44.595Z,101051.63
2022-10-27T23:31:12.444Z,101045.13
2022-10-27T23:33:40.263Z,101044.94
2022-10-27T23:36:10.703Z,101039.69
2022-10-27T23:38:38.528Z,101042.72
2022-10-27T23:41:06.597Z,101045.31
2022-10-27T23:43:34.451Z,101044.34
2022-10-27T23:46:04.599Z,101036.25
2022-10-27T23:48:32.899Z,101037.59
2022-10-27T23:51:00.966Z,101046.38
2022-10-27T23:53:29.945Z,101043.59
2022-10-27T23:55:58.901Z,101032.88
2022-10-27T23:58:26.878Z,101033.53
